createdAt,value
2022-10-13T00:00:27.176Z,989.7
2022-10-13T00:02:28.723Z,989.7
2022-10-13T00:04:30.152Z,989.8
2022-10-13T00:06:32.085Z,989.7
2022-10-13T00:08:33.186Z,989.8
2022-10-13T00:10:34.771Z,989.8
2022-10-13T00:12:36.261Z,989.8
2022-10-13T00:14:37.992Z,989.8
2022-10-13T00:16:39.618Z,989.9
2022-10-13T00:20:42.851Z,989.9
2022-10-13T00:22:44.321Z,989.9
2022-10-13T00:24:46.056Z,990
2022-10-13T00:26:47.185Z,989.9
2022-10-13T00:28:52.437Z,990.1
2022-10-13T00:30:50.641Z,989.9
2022-10-13T00:32:52.367Z,989.9
2022-10-13T00:34:54.315Z,989.9
2022-10-13T00:36:55.937Z,989.9
2022-10-13T00:38:57.192Z,989.9
2022-10-13T00:40:58.857Z,989.9
2022-10-13T00:43:00.578Z,989.9
2022-10-13T00:45:02.035Z,989.8
2022-10-13T00:47:03.304Z,989.9
2022-10-13T00:49:04.663Z,989.8
2022-10-13T00:51:05.821Z,989.9
2022-10-13T00:53:07.749Z,989.8
2022-10-13T00:55:09.090Z,989.8
2022-10-13T00:57:10.492Z,989.8
2022-10-13T00:59:11.592Z,989.8
2022-10-13T01:03:15.326Z,989.9
2022-10-13T01:05:16.850Z,989.8
2022-10-13T01:07:18.792Z,989.8
2022-10-13T01:09:19.973Z,989.7
2022-10-13T01:11:21.460Z,989.8
2022-10-13T01:13:22.694Z,989.8
2022-10-13T01:15:24.188Z,989.8
2022-10-13T01:17:26.052Z,989.6
2022-10-13T01:19:27.305Z,989.6
2022-10-13T01:21:28.737Z,989.6
2022-10-13T01:23:30.114Z,989.5
2022-10-13T01:25:31.685Z,989.6
2022-10-13T01:27:33.571Z,989.6
2022-10-13T01:29:34.898Z,989.6
2022-10-13T01:31:36.128Z,989.5
2022-10-13T01:33:37.457Z,989.5
2022-10-13T01:35:39.183Z,989.6
2022-10-13T01:37:40.470Z,989.6
2022-10-13T01:39:41.779Z,989.6
2022-10-13T01:41:43.273Z,989.5
2022-10-13T01:43:45.030Z,989.5
2022-10-13T01:45:46.031Z,989.4
2022-10-13T01:47:47.162Z,989.5
2022-10-13T01:49:48.770Z,989.4
2022-10-13T01:51:50.395Z,989.5
2022-10-13T01:53:51.883Z,989.5
2022-10-13T01:55:53.646Z,989.5
2022-10-13T01:57:55.472Z,989.4
2022-10-13T02:01:58.342Z,989.4
2022-10-13T02:03:59.629Z,989.2
2022-10-13T02:06:01.347Z,989.3
2022-10-13T02:08:02.643Z,989.2
2022-10-13T02:10:03.956Z,989.3
2022-10-13T02:12:05.485Z,989.3
2022-10-13T02:14:07.376Z,989.2
2022-10-13T02:16:08.409Z,989.2
2022-10-13T02:18:09.408Z,989.3
2022-10-13T02:20:10.738Z,989.2
2022-10-13T02:22:11.880Z,989.4
2022-10-13T02:24:13.064Z,989.4
2022-10-13T02:26:14.441Z,989.4
2022-10-13T02:28:16.145Z,989.4
2022-10-13T02:30:17.369Z,989.4
2022-10-13T02:32:18.667Z,989.4
2022-10-13T02:34:19.815Z,989.4
2022-10-13T02:36:21.402Z,989.4
2022-10-13T02:38:23.256Z,989.3
2022-10-13T02:40:24.833Z,989.4
2022-10-13T02:42:26.058Z,989.4
2022-10-13T02:44:27.235Z,989.5
2022-10-13T02:46:28.794Z,989.5
2022-10-13T02:48:30.169Z,989.4
2022-10-13T02:50:31.751Z,989.3
2022-10-13T02:52:32.912Z,989.3
2022-10-13T02:54:34.730Z,989.3
2022-10-13T02:56:36.525Z,989.3
2022-10-13T02:58:38.303Z,989.3
2022-10-13T03:00:39.695Z,989.3
2022-10-13T03:02:41.051Z,989.3
2022-10-13T03:04:42.901Z,989.2
2022-10-13T03:06:44.519Z,989.3
2022-10-13T03:10:47.849Z,989.4
2022-10-13T03:12:49.189Z,989.3
2022-10-13T03:14:50.397Z,989.3
2022-10-13T03:16:51.609Z,989.3
2022-10-13T03:20:54.499Z,989.3
2022-10-13T03:22:55.725Z,989.4
2022-10-13T03:26:58.541Z,989.2
2022-10-13T03:28:59.723Z,989.3
2022-10-13T03:31:01.530Z,989.3
2022-10-13T03:33:02.638Z,989.3
2022-10-13T03:35:03.959Z,989.3
2022-10-13T03:37:05.329Z,989.2
2022-10-13T03:39:06.987Z,989.3
2022-10-13T03:41:08.211Z,989.2
2022-10-13T03:43:09.493Z,989
2022-10-13T03:45:10.830Z,989.2
2022-10-13T03:47:12.238Z,989.2
2022-10-13T03:49:13.976Z,989.1
2022-10-13T03:51:15.761Z,989.1
2022-10-13T03:53:17.710Z,989.1
2022-10-13T03:55:18.846Z,989.1
2022-10-13T03:57:20.699Z,989.1
2022-10-13T03:59:22.579Z,989.1
2022-10-13T04:01:24.215Z,989.1
2022-10-13T04:03:25.620Z,989.1
2022-10-13T04:05:26.962Z,989.1
2022-10-13T04:07:28.058Z,989.1
2022-10-13T04:09:29.488Z,989.1
2022-10-13T04:11:30.573Z,989.1
2022-10-13T04:13:32.078Z,989.1
2022-10-13T04:15:33.145Z,989.2
2022-10-13T04:17:34.550Z,989.1
2022-10-13T04:19:35.598Z,989
2022-10-13T04:21:36.978Z,989
2022-10-13T04:25:39.222Z,989.1
2022-10-13T04:27:40.886Z,989
2022-10-13T04:29:42.426Z,989
2022-10-13T04:31:43.521Z,989
2022-10-13T04:33:45.332Z,988.9
2022-10-13T04:35:46.793Z,988.9
2022-10-13T04:37:48.432Z,988.9
2022-10-13T04:39:49.968Z,988.9
2022-10-13T04:41:51.755Z,988.9
2022-10-13T04:43:52.753Z,988.8
2022-10-13T04:45:53.716Z,988.9
2022-10-13T04:47:54.770Z,989
2022-10-13T04:49:56.253Z,988.9
2022-10-13T04:51:57.395Z,988.9
2022-10-13T04:53:58.935Z,988.9
2022-10-13T04:56:00.744Z,988.9
2022-10-13T04:58:02.181Z,988.9
2022-10-13T05:00:03.942Z,988.8
2022-10-13T05:02:04.984Z,988.8
2022-10-13T05:04:06.010Z,988.9
2022-10-13T05:06:07.776Z,988.9
2022-10-13T05:08:09.060Z,989
2022-10-13T05:10:10.105Z,988.9
2022-10-13T05:12:11.583Z,988.9
2022-10-13T05:14:12.975Z,988.9
2022-10-13T05:16:14.519Z,988.9
2022-10-13T05:18:16.247Z,988.9
2022-10-13T05:20:17.304Z,989
2022-10-13T05:22:18.658Z,989
2022-10-13T05:24:19.847Z,988.9
2022-10-13T05:26:21.459Z,989
2022-10-13T05:28:22.900Z,989.1
2022-10-13T05:30:24.806Z,989
2022-10-13T05:32:26.513Z,989
2022-10-13T05:34:27.776Z,989.1
2022-10-13T05:36:28.749Z,989
2022-10-13T05:38:29.839Z,989
2022-10-13T05:40:31.447Z,989
2022-10-13T05:42:33.206Z,989
2022-10-13T05:44:34.211Z,989
2022-10-13T05:46:35.263Z,989
2022-10-13T05:50:38.133Z,989
2022-10-13T05:52:39.671Z,989
2022-10-13T05:54:41.009Z,988.9
2022-10-13T05:56:42.001Z,989
2022-10-13T05:58:43.332Z,989
2022-10-13T06:00:44.529Z,989
2022-10-13T06:02:45.499Z,989
2022-10-13T06:04:46.917Z,988.9
2022-10-13T06:06:48.050Z,989
2022-10-13T06:08:49.424Z,989
2022-10-13T06:10:51.146Z,989
2022-10-13T06:12:52.521Z,989
2022-10-13T06:14:53.849Z,989
2022-10-13T06:16:55.744Z,988.9
2022-10-13T06:18:57.501Z,988.9
2022-10-13T06:20:59.062Z,988.9
2022-10-13T06:23:00.163Z,988.9
2022-10-13T06:23:43.974Z,988.8
2022-10-13T06:27:46.844Z,988.8
2022-10-13T06:29:48.256Z,988.8
2022-10-13T06:31:49.434Z,988.8
2022-10-13T06:33:51.257Z,988.8
2022-10-13T06:35:53.162Z,988.9
2022-10-13T06:37:54.152Z,988.9
2022-10-13T06:39:55.887Z,989
2022-10-13T06:43:58.013Z,989
2022-10-13T06:45:59.219Z,989
2022-10-13T06:48:00.169Z,989
2022-10-13T06:50:01.505Z,989
2022-10-13T06:52:03.138Z,989
2022-10-13T06:54:04.119Z,989
2022-10-13T06:56:14.753Z,989
2022-10-13T06:58:07.140Z,989
2022-10-13T07:00:08.810Z,989
2022-10-13T07:02:09.875Z,988.9
2022-10-13T07:04:11.309Z,989
2022-10-13T07:06:12.656Z,988.9
2022-10-13T07:10:15.567Z,988.8
2022-10-13T07:12:17.685Z,988.8
2022-10-13T07:14:18.397Z,988.9
2022-10-13T07:16:20.306Z,988.9
2022-10-13T07:18:21.997Z,988.9
2022-10-13T07:20:22.969Z,988.9
2022-10-13T07:22:24.231Z,988.9
2022-10-13T07:24:25.647Z,988.9
2022-10-13T07:26:26.831Z,988.8
2022-10-13T07:28:28.714Z,988.9
2022-10-13T07:30:30.265Z,988.9
2022-10-13T07:32:31.517Z,988.9
2022-10-13T07:34:32.631Z,988.8
2022-10-13T07:36:34.015Z,988.8
2022-10-13T07:38:35.248Z,989
2022-10-13T07:40:36.695Z,988.9
2022-10-13T07:42:38.433Z,988.9
2022-10-13T07:44:39.496Z,988.9
2022-10-13T07:46:40.941Z,988.8
2022-10-13T07:48:42.673Z,988.8
2022-10-13T07:50:43.628Z,988.9
2022-10-13T07:52:44.667Z,988.8
2022-10-13T07:54:45.737Z,988.8
2022-10-13T07:56:47.238Z,988.7
2022-10-13T07:58:48.833Z,988.8
2022-10-13T08:02:52.380Z,988.9
2022-10-13T08:04:53.440Z,988.8
2022-10-13T08:08:55.734Z,988.8
2022-10-13T08:10:56.872Z,988.8
2022-10-13T08:12:58.515Z,988.7
2022-10-13T08:15:00.632Z,988.7
2022-10-13T08:17:00.888Z,988.8
2022-10-13T08:19:01.954Z,988.7
2022-10-13T08:21:28.380Z,988.7
2022-10-13T08:23:04.906Z,988.7
2022-10-13T08:25:06.448Z,988.7
2022-10-13T08:27:07.588Z,988.7
2022-10-13T08:29:21.119Z,988.7
2022-10-13T08:31:11.105Z,988.5
2022-10-13T08:33:12.780Z,988.7
2022-10-13T08:35:13.771Z,988.6
2022-10-13T08:37:14.962Z,988.7
2022-10-13T08:39:16.279Z,988.6
2022-10-13T08:41:17.613Z,988.5
2022-10-13T08:43:19.005Z,988.5
2022-10-13T08:45:41.174Z,988.5
2022-10-13T08:47:23.056Z,988.4
2022-10-13T08:49:24.540Z,988.5
2022-10-13T08:51:26.139Z,988.5
2022-10-13T08:53:27.475Z,988.5
2022-10-13T08:55:29.267Z,988.4
2022-10-13T08:57:31.025Z,988.4
2022-10-13T08:59:32.431Z,988.4
2022-10-13T09:01:33.391Z,988.4
2022-10-13T09:03:35.135Z,988.4
2022-10-13T09:07:38.470Z,988.3
2022-10-13T09:09:39.647Z,988.4
2022-10-13T09:11:41.160Z,988.3
2022-10-13T09:13:42.772Z,988.4
2022-10-13T09:15:44.185Z,988.3
2022-10-13T09:17:45.089Z,988.3
2022-10-13T09:19:46.420Z,988.3
2022-10-13T09:21:48.224Z,988.2
2022-10-13T09:23:49.934Z,988.2
2022-10-13T09:25:50.800Z,988.2
2022-10-13T09:27:51.633Z,988.2
2022-10-13T09:29:52.826Z,988
2022-10-13T09:31:54.187Z,988.1
2022-10-13T09:33:55.927Z,988.2
2022-10-13T09:35:57.348Z,988.2
2022-10-13T09:37:59.065Z,988.2
2022-10-13T09:40:00.314Z,988.1
2022-10-13T09:42:01.778Z,988
2022-10-13T09:44:03.059Z,988
2022-10-13T09:46:04.729Z,988
2022-10-13T09:50:15.753Z,988.1
2022-10-13T09:52:09.270Z,988.1
2022-10-13T09:54:10.187Z,988.1
2022-10-13T09:56:11.124Z,988
2022-10-13T09:58:12.116Z,988
2022-10-13T10:00:13.108Z,988
2022-10-13T10:02:16.203Z,988.1
2022-10-13T10:04:16.041Z,988.1
2022-10-13T10:06:17.065Z,988.1
2022-10-13T10:08:18.469Z,988.1
2022-10-13T10:10:19.931Z,988.1
2022-10-13T10:12:24.181Z,988.2
2022-10-13T10:16:23.633Z,988.1
2022-10-13T10:18:25.385Z,988.1
2022-10-13T10:20:26.834Z,988.1
2022-10-13T10:22:28.380Z,988
2022-10-13T10:26:32.777Z,988
2022-10-13T10:28:32.212Z,988.1
2022-10-13T10:30:33.908Z,988.1
2022-10-13T10:32:35.063Z,988.1
2022-10-13T10:34:36.644Z,988
2022-10-13T10:36:37.664Z,988.1
2022-10-13T10:38:38.558Z,987.9
2022-10-13T10:40:39.770Z,988
2022-10-13T10:42:40.528Z,987.9
2022-10-13T10:44:41.681Z,987.9
2022-10-13T10:46:42.397Z,988
2022-10-13T10:48:43.626Z,987.9
2022-10-13T10:50:44.515Z,987.8
2022-10-13T10:52:45.848Z,987.8
2022-10-13T10:54:49.113Z,987.9
2022-10-13T10:56:48.630Z,987.7
2022-10-13T10:58:49.933Z,987.8
2022-10-13T11:00:51.168Z,987.7
2022-10-13T11:02:52.408Z,987.6
2022-10-13T11:04:53.846Z,987.7
2022-10-13T11:06:55.240Z,987.7
2022-10-13T11:08:56.854Z,987.7
2022-10-13T11:10:58.476Z,987.8
2022-10-13T11:12:59.805Z,987.8
2022-10-13T11:15:01.270Z,987.9
2022-10-13T11:17:02.285Z,987.7
2022-10-13T11:19:03.640Z,987.6
2022-10-13T11:21:04.627Z,987.7
2022-10-13T11:23:06.316Z,987.6
2022-10-13T11:25:08.036Z,987.7
2022-10-13T11:27:09.030Z,987.7
2022-10-13T11:31:12.511Z,987.5
2022-10-13T11:33:13.985Z,987.6
2022-10-13T11:35:14.743Z,987.6
2022-10-13T11:37:16.003Z,987.6
2022-10-13T11:39:17.421Z,987.5
2022-10-13T11:41:18.743Z,987.5
2022-10-13T11:43:20.285Z,987.5
2022-10-13T11:45:21.964Z,987.4
2022-10-13T11:47:23.097Z,987.5
2022-10-13T11:49:23.898Z,987.4
2022-10-13T11:51:25.226Z,987.4
2022-10-13T11:53:26.517Z,987.4
2022-10-13T11:57:29.033Z,987.4
2022-10-13T11:59:30.520Z,987.3
2022-10-13T12:01:32.057Z,987.2
2022-10-13T12:03:33.132Z,987.2
2022-10-13T12:07:35.679Z,987.2
2022-10-13T12:09:37.394Z,987.2
2022-10-13T12:11:38.574Z,987.1
2022-10-13T12:13:39.817Z,987.1
2022-10-13T12:15:41.031Z,987.2
2022-10-13T12:17:42.228Z,987.1
2022-10-13T12:19:43.702Z,987.2
2022-10-13T12:21:45.166Z,987.1
2022-10-13T12:23:46.799Z,987.1
2022-10-13T12:25:48.496Z,987
2022-10-13T12:27:50.209Z,986.9
2022-10-13T12:29:52.047Z,986.9
2022-10-13T12:31:53.472Z,987
2022-10-13T12:33:54.936Z,987
2022-10-13T12:35:56.330Z,987
2022-10-13T12:37:57.553Z,986.9
2022-10-13T12:39:58.769Z,986.7
2022-10-13T12:42:00.600Z,986.7
2022-10-13T12:44:03.864Z,986.7
2022-10-13T12:46:03.232Z,986.6
2022-10-13T12:48:04.460Z,986.7
2022-10-13T12:50:06.136Z,986.7
2022-10-13T12:52:07.424Z,986.7
2022-10-13T12:56:09.533Z,986.8
2022-10-13T12:58:10.763Z,986.8
2022-10-13T13:00:11.749Z,986.8
2022-10-13T13:02:12.854Z,986.8
2022-10-13T13:04:13.845Z,986.9
2022-10-13T13:06:14.770Z,986.8
2022-10-13T13:08:15.997Z,986.8
2022-10-13T13:08:59.721Z,986.7
2022-10-13T13:11:00.690Z,986.8
2022-10-13T13:13:02.526Z,986.9
2022-10-13T13:15:03.997Z,986.8
2022-10-13T13:17:04.910Z,986.9
2022-10-13T13:19:05.985Z,986.9
2022-10-13T13:21:07.540Z,986.9
2022-10-13T13:23:09.169Z,986.9
2022-10-13T13:25:10.329Z,986.9
2022-10-13T13:27:11.795Z,986.8
2022-10-13T13:29:13.037Z,986.8
2022-10-13T13:33:15.121Z,986.7
2022-10-13T13:35:16.328Z,986.7
2022-10-13T13:37:17.634Z,986.7
2022-10-13T13:39:19.176Z,986.7
2022-10-13T13:43:21.990Z,986.6
2022-10-13T13:45:23.510Z,986.6
2022-10-13T13:47:24.703Z,986.5
2022-10-13T13:49:25.772Z,986.5
2022-10-13T13:51:27.192Z,986.4
2022-10-13T13:53:28.357Z,986.5
2022-10-13T13:55:29.690Z,986.4
2022-10-13T13:57:30.751Z,986.4
2022-10-13T13:59:32.514Z,986.5
2022-10-13T14:01:34.067Z,986.5
2022-10-13T14:03:35.105Z,986.4
2022-10-13T14:05:36.467Z,986.5
2022-10-13T14:07:38.328Z,986.5
2022-10-13T14:09:39.658Z,986.5
2022-10-13T14:11:40.973Z,986.6
2022-10-13T14:13:42.061Z,986.5
2022-10-13T14:15:43.103Z,986.5
2022-10-13T14:17:44.385Z,986.5
2022-10-13T14:19:45.418Z,986.5
2022-10-13T14:21:46.281Z,986.4
2022-10-13T14:23:48.059Z,986.5
2022-10-13T14:25:48.963Z,986.5
2022-10-13T14:27:50.298Z,986.5
2022-10-13T14:29:51.247Z,986.4
2022-10-13T14:31:52.509Z,986.4
2022-10-13T14:33:54.481Z,986.5
2022-10-13T14:35:55.484Z,986.5
2022-10-13T14:37:57.178Z,986.4
2022-10-13T14:39:58.842Z,986.5
2022-10-13T14:42:00.167Z,986.5
2022-10-13T14:44:01.251Z,986.5
2022-10-13T14:48:03.623Z,986.5
2022-10-13T14:50:04.583Z,986.5
2022-10-13T14:52:05.983Z,986.4
2022-10-13T14:54:07.669Z,986.5
2022-10-13T14:56:09.377Z,986.4
2022-10-13T14:58:10.560Z,986.4
2022-10-13T15:00:12.222Z,986.4
2022-10-13T15:02:13.911Z,986.4
2022-10-13T15:04:15.685Z,986.4
2022-10-13T15:06:17.530Z,986.3
2022-10-13T15:08:19.356Z,986.4
2022-10-13T15:10:20.471Z,986.4
2022-10-13T15:14:22.917Z,986.4
2022-10-13T15:16:24.339Z,986.4
2022-10-13T15:18:29.166Z,986.3
2022-10-13T15:20:27.170Z,986.3
2022-10-13T15:22:29.092Z,986.3
2022-10-13T15:24:30.690Z,986.3
2022-10-13T15:26:31.700Z,986.3
2022-10-13T15:28:33.499Z,986.2
2022-10-13T15:30:35.238Z,986.2
2022-10-13T15:32:36.945Z,986.1
2022-10-13T15:34:37.867Z,986.1
2022-10-13T15:36:39.272Z,986.2
2022-10-13T15:38:41.116Z,986.1
2022-10-13T15:40:42.969Z,986.1
2022-10-13T15:42:44.729Z,986.1
2022-10-13T15:45:10.247Z,985.9
2022-10-13T15:47:05.741Z,986
2022-10-13T15:48:48.469Z,986.1
2022-10-13T15:52:50.903Z,986.3
2022-10-13T15:54:51.922Z,986.3
2022-10-13T15:56:53.404Z,986.3
2022-10-13T15:58:54.385Z,986.3
2022-10-13T16:00:56.138Z,986.3
2022-10-13T16:02:57.001Z,986.3
2022-10-13T16:07:00.207Z,986.3
2022-10-13T16:09:01.600Z,986.5
2022-10-13T16:13:04.275Z,986.4
2022-10-13T16:15:05.293Z,986.4
2022-10-13T16:17:07.039Z,986.4
2022-10-13T16:19:08.715Z,986.4
2022-10-13T16:23:11.673Z,986.3
2022-10-13T16:25:13.113Z,986.3
2022-10-13T16:27:14.851Z,986.3
2022-10-13T16:29:16.563Z,986.3
2022-10-13T16:31:17.917Z,986.3
2022-10-13T16:33:19.124Z,986.4
2022-10-13T16:35:20.829Z,986.3
2022-10-13T16:37:22.794Z,986.3
2022-10-13T16:39:23.780Z,986.3
2022-10-13T16:41:25.274Z,986.3
2022-10-13T16:43:26.609Z,986.2
2022-10-13T16:45:41.600Z,986.2
2022-10-13T16:47:28.717Z,986.2
2022-10-13T16:49:29.632Z,986.2
2022-10-13T16:51:31.072Z,986.3
2022-10-13T16:53:32.094Z,986.3
2022-10-13T16:55:33.419Z,986.3
2022-10-13T16:57:35.224Z,986.3
2022-10-13T16:59:36.119Z,986.3
2022-10-13T17:01:38.026Z,986.3
2022-10-13T17:03:39.221Z,986.3
2022-10-13T17:05:40.655Z,986.3
2022-10-13T17:07:42.358Z,986.3
2022-10-13T17:09:43.556Z,986.3
2022-10-13T17:11:45.164Z,986.3
2022-10-13T17:13:46.415Z,986.2
2022-10-13T17:15:47.553Z,986.2
2022-10-13T17:17:49.142Z,986.2
2022-10-13T17:19:50.425Z,986.2
2022-10-13T17:21:52.264Z,986.3
2022-10-13T17:23:54.086Z,986.2
2022-10-13T17:27:57.202Z,986.2
2022-10-13T17:29:58.856Z,986.1
2022-10-13T17:31:59.905Z,986.2
2022-10-13T17:34:01.148Z,986.3
2022-10-13T17:38:04.733Z,986.3
2022-10-13T17:40:06.023Z,986.3
2022-10-13T17:42:07.870Z,986.3
2022-10-13T17:44:09.522Z,986.2
2022-10-13T17:46:31.348Z,986.3
2022-10-13T17:48:14.417Z,986.3
2022-10-13T17:50:14.072Z,986.3
2022-10-13T17:52:15.519Z,986.3
2022-10-13T17:54:17.067Z,986.3
2022-10-13T17:56:18.864Z,986.4
2022-10-13T17:58:20.464Z,986.3
2022-10-13T18:00:22.256Z,986.3
2022-10-13T18:02:23.356Z,986.2
2022-10-13T18:04:24.838Z,986.3
2022-10-13T18:06:26.089Z,986.2
2022-10-13T18:08:27.141Z,986.3
2022-10-13T18:10:31.433Z,986.2
2022-10-13T18:12:29.815Z,986.2
2022-10-13T18:14:30.778Z,986.2
2022-10-13T18:16:32.440Z,986.3
2022-10-13T18:18:33.824Z,986.2
2022-10-13T18:20:35.698Z,986.2
2022-10-13T18:22:36.987Z,986.2
2022-10-13T18:24:38.141Z,986.2
2022-10-13T18:26:39.146Z,986.2
2022-10-13T18:28:40.682Z,986.1
2022-10-13T18:30:42.171Z,986.2
2022-10-13T18:32:43.709Z,986.1
2022-10-13T18:34:44.675Z,986.2
2022-10-13T18:36:46.297Z,986.2
2022-10-13T18:38:47.254Z,986.1
2022-10-13T18:40:48.746Z,986.2
2022-10-13T18:42:54.267Z,986.1
2022-10-13T18:44:51.971Z,986.2
2022-10-13T18:46:53.530Z,986.2
2022-10-13T18:48:55.225Z,986.2
2022-10-13T18:50:57.066Z,986.2
2022-10-13T18:52:58.929Z,986.2
2022-10-13T18:55:00.447Z,986.3
2022-10-13T18:57:01.740Z,986.2
2022-10-13T18:59:02.740Z,986.2
2022-10-13T19:01:03.960Z,986.2
2022-10-13T19:03:05.010Z,986.2
2022-10-13T19:05:06.694Z,986.2
2022-10-13T19:07:08.162Z,986.1
2022-10-13T19:09:09.446Z,986.1
2022-10-13T19:11:11.004Z,986.1
2022-10-13T19:13:12.383Z,986.1
2022-10-13T19:15:13.644Z,986.1
2022-10-13T19:17:14.575Z,986.1
2022-10-13T19:19:15.737Z,986.1
2022-10-13T19:21:17.547Z,986.1
2022-10-13T19:25:21.038Z,986.1
2022-10-13T19:27:22.791Z,986
2022-10-13T19:29:24.033Z,986.1
2022-10-13T19:31:25.609Z,986
2022-10-13T19:33:26.805Z,986.1
2022-10-13T19:35:28.029Z,986
2022-10-13T19:37:29.301Z,986.1
2022-10-13T19:39:30.911Z,986.1
2022-10-13T19:41:32.309Z,986.1
2022-10-13T19:43:33.256Z,986
2022-10-13T19:45:34.749Z,986
2022-10-13T19:47:36.056Z,986
2022-10-13T19:49:37.020Z,986
2022-10-13T19:51:38.123Z,986
2022-10-13T19:53:39.463Z,985.9
2022-10-13T19:56:25.163Z,985.9
2022-10-13T19:58:26.480Z,985.9
2022-10-13T20:00:27.470Z,985.9
2022-10-13T20:02:28.936Z,985.8
2022-10-13T20:04:30.810Z,985.9
2022-10-13T20:06:32.052Z,986
2022-10-13T20:08:33.288Z,985.9
2022-10-13T20:10:34.602Z,985.9
2022-10-13T20:12:35.802Z,986
2022-10-13T20:14:37.405Z,986.2
2022-10-13T20:16:38.650Z,986.2
2022-10-13T20:18:40.172Z,986.3
2022-10-13T20:22:42.601Z,986.2
2022-10-13T20:24:43.757Z,986.2
2022-10-13T20:26:45.583Z,986.2
2022-10-13T20:28:47.369Z,986.2
2022-10-13T20:30:48.197Z,986.2
2022-10-13T20:32:49.297Z,986.2
2022-10-13T20:34:50.978Z,986.2
2022-10-13T20:36:52.838Z,986.2
2022-10-13T20:38:53.937Z,986.1
2022-10-13T20:40:55.297Z,986.2
2022-10-13T20:44:58.800Z,986.1
2022-10-13T20:47:00.161Z,986.2
2022-10-13T20:49:12.849Z,986.2
2022-10-13T20:51:03.221Z,986.1
2022-10-13T20:53:04.497Z,986
2022-10-13T20:55:05.601Z,986.1
2022-10-13T20:57:06.530Z,986.1
2022-10-13T21:01:09.561Z,986.1
2022-10-13T21:03:10.916Z,986.2
2022-10-13T21:05:12.448Z,986.2
2022-10-13T21:07:13.870Z,986.3
2022-10-13T21:09:15.154Z,986.2
2022-10-13T21:11:16.369Z,986.3
2022-10-13T21:13:17.357Z,986.2
2022-10-13T21:15:18.301Z,986.3
2022-10-13T21:17:20.300Z,986.3
2022-10-13T21:19:21.612Z,986.3
2022-10-13T21:21:23.081Z,986.3
2022-10-13T21:23:24.347Z,986.3
2022-10-13T21:25:25.377Z,986.3
2022-10-13T21:27:27.175Z,986.4
2022-10-13T21:29:28.822Z,986.3
2022-10-13T21:31:30.588Z,986.3
2022-10-13T21:33:34.406Z,986.3
2022-10-13T21:35:33.472Z,986.3
2022-10-13T21:37:35.196Z,986.4
2022-10-13T21:39:36.494Z,986.3
2022-10-13T21:41:38.364Z,986.3
2022-10-13T21:43:39.290Z,986.5
2022-10-13T21:45:40.295Z,986.5
2022-10-13T21:47:41.491Z,986.5
2022-10-13T21:49:42.901Z,986.3
2022-10-13T21:51:44.022Z,986.3
2022-10-13T21:53:44.971Z,986.3
2022-10-13T21:55:45.862Z,986.4
2022-10-13T21:57:47.736Z,986.4
2022-10-13T21:59:49.230Z,986.3
2022-10-13T22:01:50.324Z,986.3
2022-10-13T22:03:52.167Z,986.2
2022-10-13T22:05:53.151Z,986.3
2022-10-13T22:09:55.818Z,986.3
2022-10-13T22:11:57.187Z,986.3
2022-10-13T22:13:58.156Z,986.3
2022-10-13T22:15:59.328Z,986.4
2022-10-13T22:20:01.992Z,986.4
2022-10-13T22:22:03.245Z,986.3
2022-10-13T22:24:04.337Z,986.3
2022-10-13T22:26:06.179Z,986.3
2022-10-13T22:28:08.062Z,986.3
2022-10-13T22:30:09.591Z,986.3
2022-10-13T22:32:11.135Z,986.3
2022-10-13T22:34:12.563Z,986.3
2022-10-13T22:36:13.485Z,986.3
2022-10-13T22:38:15.279Z,986.3
2022-10-13T22:40:17.148Z,986.3
2022-10-13T22:42:18.780Z,986.2
2022-10-13T22:44:20.049Z,986.4
2022-10-13T22:46:21.706Z,986.3
2022-10-13T22:48:23.261Z,986.3
2022-10-13T22:50:24.320Z,986.3
2022-10-13T22:52:25.913Z,986.3
2022-10-13T22:54:26.969Z,986.3
2022-10-13T22:58:29.379Z,986.2
2022-10-13T23:00:30.781Z,986.3
2022-10-13T23:02:31.734Z,986.3
2022-10-13T23:04:33.196Z,986.4
2022-10-13T23:06:34.101Z,986.4
2022-10-13T23:08:35.184Z,986.3
2022-10-13T23:10:36.858Z,986.3
2022-10-13T23:12:38.030Z,986.3
2022-10-13T23:14:39.547Z,986.3
2022-10-13T23:16:40.582Z,986.3
2022-10-13T23:18:42.419Z,986.3
2022-10-13T23:20:44.233Z,986.2
2022-10-13T23:22:45.982Z,986.2
2022-10-13T23:24:47.738Z,986.2
2022-10-13T23:26:48.862Z,986.3
2022-10-13T23:28:50.081Z,986.2
2022-10-13T23:30:51.690Z,986.3
2022-10-13T23:32:53.101Z,986.2
2022-10-13T23:34:54.526Z,986.2
2022-10-13T23:36:56.396Z,986.3
2022-10-13T23:38:57.487Z,986.2
2022-10-13T23:40:58.862Z,986.1
2022-10-13T23:43:00.076Z,986.1
2022-10-13T23:45:01.613Z,986.2
2022-10-13T23:47:02.678Z,986.1
2022-10-13T23:49:03.956Z,986.1
2022-10-13T23:51:05.674Z,986.1
2022-10-13T23:53:07.490Z,986.2
2022-10-13T23:55:08.984Z,986.1
2022-10-13T23:57:10.213Z,986.2
2022-10-13T23:59:11.286Z,986.2
